Time;durP1;ratioP1;P1;durP2;ratioP2;P2;SDS_P1;SDS_P2;PMS_P1;PMS_P2;Temp;Humidity;BMP_temperature;BMP_pressure;BME280_temperature;BME280_humidity;BME280_pressure;Samples;Min_cycle;Max_cycle;Signal;HPM_P1;HPM_P2
2020/12/29 00:02:16;;;;;;;14.77;10.80;;;2.80;74.10;;;;;;5106446;28;20038;-68
2020/12/29 00:04:42;;;;;;;17.52;11.82;;;2.70;73.90;;;;;;5105900;27;20132;-68
2020/12/29 00:07:08;;;;;;;16.17;12.00;;;2.70;74.00;;;;;;5086840;28;20065;-68
2020/12/29 00:09:34;;;;;;;15.93;11.23;;;2.70;74.00;;;;;;5086623;28;20046;-68
2020/12/29 00:12:00;;;;;;;17.30;11.63;;;2.70;74.10;;;;;;5087149;28;20043;-68
2020/12/29 00:14:26;;;;;;;16.70;10.57;;;2.70;74.10;;;;;;5105176;28;20446;-68
2020/12/29 00:16:53;;;;;;;14.55;11.43;;;2.60;73.90;;;;;;5103756;28;20031;-67
2020/12/29 00:19:27;;;;;;;14.70;11.25;;;2.60;74.00;;;;;;5105659;28;20098;-67
2020/12/29 00:21:54;;;;;;;16.13;11.30;;;2.60;74.00;;;;;;5105094;27;20040;-67
2020/12/29 00:24:20;;;;;;;11.68;10.45;;;2.60;74.10;;;;;;5107978;27;20070;-67
2020/12/29 00:26:46;;;;;;;16.13;11.50;;;2.60;74.10;;;;;;5105682;28;20030;-67
2020/12/29 00:29:12;;;;;;;12.65;10.48;;;2.60;74.10;;;;;;5103102;28;20130;-67
2020/12/29 00:31:38;;;;;;;14.25;11.00;;;2.60;74.10;;;;;;5105362;28;20084;-67
2020/12/29 00:34:04;;;;;;;12.52;11.18;;;2.70;74.30;;;;;;5103313;28;20055;-67
2020/12/29 00:36:30;;;;;;;15.27;11.90;;;2.70;74.30;;;;;;5103229;28;20621;-67
2020/12/29 00:38:57;;;;;;;15.25;10.57;;;2.70;74.30;;;;;;5102954;28;20072;-68
2020/12/29 00:41:24;;;;;;;14.13;11.65;;;2.70;74.30;;;;;;5104728;28;20039;-67
2020/12/29 00:43:53;;;;;;;14.55;11.05;;;2.70;74.30;;;;;;5102851;28;20047;-67
2020/12/29 00:46:21;;;;;;;15.02;10.98;;;2.70;74.30;;;;;;5105152;28;20066;-67
2020/12/29 00:48:47;;;;;;;19.73;11.82;;;2.60;74.10;;;;;;5103110;28;20031;-67
2020/12/29 00:51:16;;;;;;;18.52;12.13;;;2.70;74.30;;;;;;5086465;28;20032;-67
2020/12/29 00:53:50;;;;;;;15.30;12.48;;;2.60;74.10;;;;;;5103394;28;20032;-66
2020/12/29 00:56:18;;;;;;;15.98;11.45;;;2.60;74.20;;;;;;5102938;28;20020;-67
2020/12/29 00:58:45;;;;;;;15.50;11.25;;;2.70;74.30;;;;;;5103256;28;20604;-67
2020/12/29 01:01:14;;;;;;;18.73;12.63;;;2.60;74.20;;;;;;5104583;28;20032;-67
2020/12/29 01:04:00;;;;;;;15.32;10.93;;;2.60;74.20;;;;;;5102521;28;20462;-67
2020/12/29 01:06:29;;;;;;;15.43;12.32;;;2.60;74.20;;;;;;5102375;28;20036;-67
2020/12/29 01:09:00;;;;;;;;;;;2.60;74.20;;;;;;5085639;28;20027;-66
2020/12/29 01:11:26;;;;;;;20.13;11.77;;;2.60;74.20;;;;;;5085449;28;19931;-67
2020/12/29 01:13:55;;;;;;;16.25;12.23;;;2.50;73.90;;;;;;5103284;28;20355;-65
2020/12/29 01:16:21;;;;;;;16.08;12.55;;;2.60;74.10;;;;;;5102852;28;20032;-67
2020/12/29 01:18:51;;;;;;;14.18;11.32;;;2.50;74.00;;;;;;5102089;28;20077;-67
2020/12/29 01:21:17;;;;;;;18.08;13.43;;;2.50;74.10;;;;;;5103261;28;20527;-67
2020/12/29 01:23:43;;;;;;;22.50;11.77;;;2.50;74.10;;;;;;5106447;28;20393;-67
2020/12/29 01:26:09;;;;;;;14.10;11.60;;;2.50;74.10;;;;;;5103633;28;20035;-66
2020/12/29 01:28:37;;;;;;;15.73;11.98;;;2.50;74.20;;;;;;5103912;28;20413;-67
2020/12/29 01:31:04;;;;;;;17.88;11.63;;;2.50;74.20;;;;;;5104623;28;20035;-67
2020/12/29 01:33:29;;;;;;;20.90;11.48;;;2.50;74.20;;;;;;5102895;28;20124;-67
2020/12/29 01:35:56;;;;;;;14.15;11.45;;;2.40;74.00;;;;;;5104659;28;20024;-67
2020/12/29 01:38:22;;;;;;;16.42;11.50;;;2.40;74.00;;;;;;5085175;28;20042;-67
2020/12/29 01:40:48;;;;;;;14.10;10.70;;;2.40;74.00;;;;;;5104364;28;20070;-67
2020/12/29 01:43:14;;;;;;;21.95;11.05;;;2.40;74.10;;;;;;5107429;28;20451;-67
2020/12/29 01:45:40;;;;;;;17.77;11.18;;;2.40;74.10;;;;;;5106861;28;20035;-67
2020/12/29 01:48:06;;;;;;;14.30;11.07;;;2.40;74.10;;;;;;5107842;28;20039;-68
2020/12/29 01:50:32;;;;;;;14.57;11.10;;;2.40;74.10;;;;;;5090259;28;20031;-68
2020/12/29 01:53:00;;;;;;;16.55;12.52;;;2.40;74.10;;;;;;5107909;28;20072;-67
2020/12/29 01:55:27;;;;;;;13.23;10.65;;;2.40;74.10;;;;;;5108029;28;20382;-68
2020/12/29 01:57:53;;;;;;;14.60;11.15;;;2.40;74.10;;;;;;5106587;28;20415;-68
2020/12/29 02:00:19;;;;;;;14.00;11.10;;;2.30;74.00;;;;;;5107831;27;20175;-67
2020/12/29 02:02:46;;;;;;;17.40;12.10;;;2.30;74.00;;;;;;5107517;28;20065;-68
2020/12/29 02:05:12;;;;;;;13.75;10.52;;;2.30;74.00;;;;;;5106262;28;20032;-68
2020/12/29 02:07:39;;;;;;;17.35;11.85;;;2.30;74.10;;;;;;5108005;28;20129;-68
2020/12/29 02:10:05;;;;;;;14.75;11.20;;;2.30;74.60;;;;;;5107023;28;20552;-68
2020/12/29 02:12:34;;;;;;;17.40;10.95;;;2.30;74.10;;;;;;5108118;28;20281;-68
2020/12/29 02:15:05;;;;;;;13.90;10.07;;;2.30;74.10;;;;;;5107659;28;20028;-69
2020/12/29 02:17:31;;;;;;;14.65;11.73;;;2.30;74.10;;;;;;5089077;28;20035;-69
2020/12/29 02:19:57;;;;;;;14.73;11.38;;;2.30;74.10;;;;;;5105273;28;20040;-69
2020/12/29 02:22:25;;;;;;;17.08;10.90;;;2.30;74.10;;;;;;5106025;28;20500;-69
2020/12/29 02:24:57;;;;;;;14.07;10.90;;;2.20;74.00;;;;;;5110188;27;20028;-68
2020/12/29 02:27:26;;;;;;;13.65;10.75;;;2.30;74.20;;;;;;5107216;27;20028;-69
2020/12/29 02:29:52;;;;;;;16.92;11.52;;;2.30;74.20;;;;;;5107343;28;20044;-69
2020/12/29 02:32:23;;;;;;;16.58;10.98;;;2.30;74.20;;;;;;5073115;22;20408;-74
2020/12/29 02:34:50;;;;;;;19.02;10.60;;;2.30;74.20;;;;;;5043385;28;20040;-74
2020/12/29 02:37:17;;;;;;;16.02;10.98;;;2.30;74.20;;;;;;5032312;28;20021;-74
2020/12/29 02:39:49;;;;;;;13.75;10.43;;;2.30;74.10;;;;;;5049629;28;20028;-74
2020/12/29 02:42:15;;;;;;;15.75;11.35;;;2.40;74.30;;;;;;5050406;28;20468;-74
2020/12/29 02:44:41;;;;;;;14.95;11.07;;;2.40;74.30;;;;;;5049988;28;20074;-74
2020/12/29 02:47:07;;;;;;;14.60;11.00;;;2.40;74.20;;;;;;5072166;22;20116;-91
2020/12/29 02:49:35;;;;;;;14.23;10.70;;;2.40;74.20;;;;;;5036031;28;20558;-90
2020/12/29 02:52:03;;;;;;;13.52;11.63;;;2.40;74.20;;;;;;5044302;28;20029;-89
2020/12/29 02:54:29;;;;;;;18.30;12.43;;;2.40;74.20;;;;;;5047658;28;20029;-90
2020/12/29 02:56:55;;;;;;;19.67;12.45;;;2.40;74.20;;;;;;5065008;28;20044;-92
2020/12/29 02:59:24;;;;;;;13.20;10.88;;;2.40;74.20;;;;;;5049023;28;20055;-93
2020/12/29 03:01:51;;;;;;;15.77;10.65;;;2.40;74.20;;;;;;5065080;28;20047;-91
2020/12/29 03:04:17;;;;;;;15.75;11.02;;;2.40;74.20;;;;;;5048486;28;20060;-92
2020/12/29 03:06:44;;;;;;;14.15;10.93;;;2.30;74.00;;;;;;5050074;28;20037;-95
2020/12/29 03:09:14;;;;;;;12.85;10.32;;;2.30;74.00;;;;;;5052042;28;20139;-91
2020/12/29 03:11:40;;;;;;;14.75;11.32;;;2.30;74.00;;;;;;5048108;28;20025;-93
2020/12/29 03:14:07;;;;;;;16.58;10.35;;;2.30;74.10;;;;;;5066562;28;20121;-91
2020/12/29 03:16:40;;;;;;;13.90;10.60;;;2.30;74.10;;;;;;5048363;28;20036;-92
2020/12/29 03:19:06;;;;;;;12.88;10.88;;;2.30;74.10;;;;;;5063460;28;20310;-92
2020/12/29 03:21:32;;;;;;;12.45;10.23;;;2.30;74.10;;;;;;5048587;28;20476;-90
2020/12/29 03:23:58;;;;;;;12.85;10.50;;;2.30;74.10;;;;;;5031031;28;20434;-91
2020/12/29 03:26:25;;;;;;;13.48;10.02;;;2.30;74.10;;;;;;5047308;28;20106;-90
2020/12/29 03:28:54;;;;;;;12.80;10.82;;;2.30;74.10;;;;;;5047091;28;20120;-89
2020/12/29 03:31:23;;;;;;;13.73;10.27;;;2.30;74.20;;;;;;5031998;28;20043;-89
2020/12/29 03:33:49;;;;;;;14.70;11.50;;;2.20;74.00;;;;;;5047782;28;20451;-88
2020/12/29 03:36:15;;;;;;;12.32;10.77;;;2.30;74.20;;;;;;5062861;28;20036;-88
2020/12/29 03:38:41;;;;;;;12.80;9.93;;;2.20;74.00;;;;;;5047157;28;20388;-89
2020/12/29 03:41:07;;;;;;;13.95;10.20;;;2.20;74.00;;;;;;5046608;28;20041;-88
2020/12/29 03:43:34;;;;;;;15.05;11.95;;;2.30;74.20;;;;;;5047451;28;20029;-93
2020/12/29 03:46:01;;;;;;;14.82;10.85;;;2.30;74.20;;;;;;5063750;28;20029;-88
2020/12/29 03:48:27;;;;;;;11.52;10.27;;;2.20;74.00;;;;;;5064250;28;20029;-90
2020/12/29 03:50:53;;;;;;;11.77;10.32;;;2.20;74.00;;;;;;5063477;28;20025;-89
2020/12/29 03:53:20;;;;;;;14.18;10.70;;;2.20;74.00;;;;;;5047703;28;20234;-89
2020/12/29 03:55:46;;;;;;;11.75;9.80;;;2.20;74.00;;;;;;5047328;28;20029;-89
2020/12/29 03:58:12;;;;;;;13.60;10.70;;;2.30;74.20;;;;;;5047405;28;20035;-90
2020/12/29 04:00:44;;;;;;;15.63;10.48;;;2.20;74.00;;;;;;5048125;28;20037;-92
2020/12/29 04:03:10;;;;;;;14.18;10.00;;;2.20;74.00;;;;;;5045756;28;20020;-88
2020/12/29 04:05:37;;;;;;;13.43;10.40;;;2.20;74.00;;;;;;5045476;28;20025;-87
2020/12/29 04:08:02;;;;;;;13.60;10.95;;;2.20;74.00;;;;;;5045728;28;20061;-88
2020/12/29 04:10:29;;;;;;;14.35;10.52;;;2.30;74.20;;;;;;5045123;28;20043;-88
2020/12/29 04:12:55;;;;;;;12.43;9.95;;;2.30;74.20;;;;;;5045230;28;20071;-88
2020/12/29 04:15:21;;;;;;;13.23;10.75;;;2.20;74.00;;;;;;5029267;28;20025;-88
2020/12/29 04:17:47;;;;;;;11.48;9.13;;;2.20;74.10;;;;;;5045419;28;20032;-88
2020/12/29 04:20:14;;;;;;;12.45;9.65;;;2.20;74.10;;;;;;5045469;28;20514;-89
2020/12/29 04:22:42;;;;;;;12.18;10.13;;;2.20;74.10;;;;;;5046413;28;20048;-90
2020/12/29 04:25:10;;;;;;;13.73;10.13;;;2.20;74.10;;;;;;5046170;28;20056;-90
2020/12/29 04:27:39;;;;;;;13.73;10.25;;;2.30;74.30;;;;;;5046678;28;20025;-90
2020/12/29 04:30:06;;;;;;;11.70;9.25;;;2.30;74.30;;;;;;5046545;28;20119;-90
2020/12/29 04:32:32;;;;;;;14.93;10.70;;;2.30;74.20;;;;;;5046785;28;20048;-91
2020/12/29 04:34:58;;;;;;;13.55;9.75;;;2.30;74.20;;;;;;5046062;28;20079;-90
2020/12/29 04:37:25;;;;;;;12.88;10.10;;;2.30;74.20;;;;;;5061812;28;20025;-90
2020/12/29 04:39:52;;;;;;;19.65;10.05;;;2.30;74.20;;;;;;5044619;28;20088;-89
2020/12/29 04:42:23;;;;;;;13.02;10.32;;;2.30;74.20;;;;;;5060998;28;20036;-89
2020/12/29 04:44:52;;;;;;;11.18;9.75;;;2.30;74.20;;;;;;5046089;28;20025;-89
2020/12/29 04:47:19;;;;;;;11.27;10.07;;;2.30;74.20;;;;;;5045185;28;20080;-89
2020/12/29 04:49:47;;;;;;;13.48;10.63;;;2.30;74.20;;;;;;5045569;28;20036;-88
2020/12/29 04:52:13;;;;;;;12.77;9.85;;;2.40;74.40;;;;;;5043434;28;20067;-87
2020/12/29 04:54:40;;;;;;;13.77;10.18;;;2.40;74.40;;;;;;5043627;28;20021;-87
2020/12/29 04:57:08;;;;;;;11.00;9.32;;;2.40;74.30;;;;;;5060578;28;20110;-87
2020/12/29 04:59:34;;;;;;;14.45;9.65;;;2.40;74.30;;;;;;5043495;28;20021;-87
2020/12/29 05:02:01;;;;;;;21.73;10.65;;;2.50;74.50;;;;;;5043279;28;20041;-86
2020/12/29 05:04:30;;;;;;;12.85;9.80;;;2.50;74.40;;;;;;5044575;28;20036;-89
2020/12/29 05:06:58;;;;;;;20.00;9.85;;;2.50;74.40;;;;;;5046040;28;20059;-92
2020/12/29 05:09:25;;;;;;;18.65;8.98;;;2.50;74.40;;;;;;5045525;28;20341;-91
2020/12/29 05:11:51;;;;;;;12.45;9.32;;;2.50;74.40;;;;;;5045992;28;20068;-87
2020/12/29 05:14:18;;;;;;;14.35;9.48;;;2.50;74.30;;;;;;5045062;28;20130;-90
2020/12/29 05:16:44;;;;;;;15.38;9.43;;;2.60;74.50;;;;;;5044759;28;20108;-90
2020/12/29 05:19:15;;;;;;;10.73;8.70;;;2.60;74.50;;;;;;5046024;28;20033;-92
2020/12/29 05:21:42;;;;;;;9.63;8.63;;;2.60;74.50;;;;;;5044494;28;20040;-92
2020/12/29 05:24:19;;;;;;;10.82;8.80;;;2.60;74.50;;;;;;5033187;28;20030;-91
2020/12/29 05:26:50;;;;;;;10.63;9.07;;;2.60;74.40;;;;;;5041576;28;20084;-92
2020/12/29 05:29:17;;;;;;;13.27;8.95;;;2.60;74.40;;;;;;5038566;28;20025;-86
2020/12/29 05:31:44;;;;;;;10.82;8.45;;;2.70;74.60;;;;;;5037255;28;20085;-86
2020/12/29 05:34:21;;;;;;;12.75;9.15;;;2.60;74.40;;;;;;5056295;28;20029;-89
2020/12/29 05:36:48;;;;;;;9.70;8.32;;;2.70;74.60;;;;;;5041254;28;20036;-89
2020/12/29 05:39:20;;;;;;;10.32;7.97;;;2.70;74.50;;;;;;5042207;28;20045;-91
2020/12/29 05:41:48;;;;;;;11.68;7.95;;;2.70;74.50;;;;;;5040714;28;20049;-83
2020/12/29 05:44:34;;;;;;;9.07;7.50;;;2.70;74.50;;;;;;5053096;28;20045;-84
2020/12/29 05:47:02;;;;;;;14.27;8.45;;;2.70;74.50;;;;;;5037537;28;20053;-86
2020/12/29 05:49:31;;;;;;;14.55;8.20;;;2.80;74.70;;;;;;5036841;28;20085;-86
2020/12/29 05:51:58;;;;;;;9.98;7.70;;;2.80;74.60;;;;;;5019394;28;20048;-83
2020/12/29 05:54:26;;;;;;;8.00;7.20;;;2.80;74.60;;;;;;5035030;28;20513;-83
2020/12/29 05:56:52;;;;;;;8.25;7.43;;;2.80;74.60;;;;;;5018409;28;20017;-84
2020/12/29 05:59:19;;;;;;;12.05;8.30;;;2.80;74.60;;;;;;5034024;28;20041;-85
2020/12/29 06:01:48;;;;;;;9.35;7.78;;;2.80;74.60;;;;;;5055486;28;20057;-87
2020/12/29 06:04:14;;;;;;;8.82;6.70;;;2.80;74.60;;;;;;5039921;28;20397;-86
2020/12/29 06:06:44;;;;;;;7.22;6.35;;;2.80;74.60;;;;;;5039108;28;20037;-85
2020/12/29 06:09:15;;;;;;;10.98;6.80;;;2.80;74.60;;;;;;5055158;28;20098;-85
2020/12/29 06:11:49;;;;;;;8.77;7.55;;;2.90;74.70;;;;;;5055732;28;20036;-85
2020/12/29 06:14:17;;;;;;;9.38;7.20;;;2.90;74.70;;;;;;5068274;28;20033;-85
2020/12/29 06:16:45;;;;;;;8.75;6.75;;;3.00;74.80;;;;;;5056996;28;20039;-84
2020/12/29 06:19:28;;;;;;;9.23;6.60;;;3.00;74.80;;;;;;5041151;28;20025;-87
2020/12/29 06:22:04;;;;;;;9.38;7.35;;;3.00;74.80;;;;;;5075037;28;20041;-91
2020/12/29 06:24:32;;;;;;;8.38;7.03;;;3.00;74.80;;;;;;5056214;28;20213;-83
2020/12/29 06:27:00;;;;;;;8.00;6.97;;;3.00;74.70;;;;;;5037426;28;20040;-86
2020/12/29 06:29:33;;;;;;;11.38;7.40;;;3.00;74.60;;;;;;5043847;28;20071;-86
2020/12/29 06:32:05;;;;;;;7.95;6.53;;;3.10;74.80;;;;;;5058519;28;20092;-87
2020/12/29 06:34:33;;;;;;;9.40;7.03;;;3.10;74.80;;;;;;5043056;28;20094;-86
2020/12/29 06:37:29;;;;;;;8.02;6.78;;;3.10;74.80;;;;;;5044458;28;20456;-85
2020/12/29 06:40:01;;;;;;;7.97;7.13;;;3.10;74.80;;;;;;5043067;28;20033;-93
2020/12/29 06:42:30;;;;;;;10.60;6.97;;;3.10;74.80;;;;;;5037249;28;20049;-83
2020/12/29 06:45:06;;;;;;;9.75;6.70;;;3.10;74.70;;;;;;5040157;28;20089;-93
2020/12/29 06:47:40;;;;;;;8.25;6.60;;;3.20;74.90;;;;;;5024494;28;20041;-87
2020/12/29 06:50:26;;;;;;;9.50;7.28;;;3.20;74.80;;;;;;5022807;28;20037;-83
2020/12/29 06:53:04;;;;;;;8.98;7.78;;;3.20;74.80;;;;;;5051634;28;20033;-90
2020/12/29 06:55:36;;;;;;;9.50;8.00;;;3.20;74.80;;;;;;5059348;28;20029;-87
2020/12/29 06:58:02;;;;;;;9.45;7.45;;;3.20;74.80;;;;;;5056334;28;20049;-81
2020/12/29 07:00:28;;;;;;;9.25;8.18;;;3.20;74.80;;;;;;5034497;28;20037;-85
2020/12/29 07:02:55;;;;;;;10.63;8.60;;;3.20;74.80;;;;;;5044898;28;20033;-83
2020/12/29 07:05:22;;;;;;;13.45;8.15;;;3.20;74.80;;;;;;5047627;28;20180;-88
2020/12/29 07:07:57;;;;;;;11.38;8.82;;;3.20;74.80;;;;;;5038125;28;20037;-87
2020/12/29 07:10:44;;;;;;;10.20;8.68;;;3.20;74.80;;;;;;5063663;28;20091;-91
2020/12/29 07:13:17;;;;;;;13.82;8.05;;;3.30;74.90;;;;;;5022163;28;20037;-83
2020/12/29 07:15:49;;;;;;;12.82;9.23;;;3.30;74.90;;;;;;5044011;28;20139;-89
2020/12/29 07:18:24;;;;;;;12.55;10.00;;;3.30;74.90;;;;;;5043471;28;20056;-92
2020/12/29 07:20:53;;;;;;;12.20;9.63;;;3.30;74.90;;;;;;5047437;28;20064;-92
2020/12/29 07:23:27;;;;;;;13.45;10.13;;;3.30;74.90;;;;;;5035303;28;20059;-88
2020/12/29 07:25:56;;;;;;;11.27;10.07;;;3.30;74.90;;;;;;5040285;28;20029;-80
2020/12/29 07:28:28;;;;;;;10.30;9.23;;;3.40;75.00;;;;;;5060406;28;20125;-91
2020/12/29 07:30:55;;;;;;;12.30;9.68;;;3.40;75.00;;;;;;5039262;28;20029;-83
2020/12/29 07:33:25;;;;;;;10.43;8.85;;;3.40;75.00;;;;;;5039070;28;20068;-84
2020/12/29 07:35:53;;;;;;;14.93;11.00;;;3.40;75.00;;;;;;5037469;28;20472;-86
2020/12/29 07:38:24;;;;;;;12.15;10.00;;;3.30;74.80;;;;;;5038310;28;20040;-84
2020/12/29 07:40:51;;;;;;;12.55;10.32;;;3.30;74.80;;;;;;5047130;28;20114;-79
2020/12/29 07:43:17;;;;;;;11.98;10.13;;;3.30;74.90;;;;;;5049097;28;20098;-82
2020/12/29 07:45:43;;;;;;;14.73;10.32;;;3.40;75.10;;;;;;5028749;28;20040;-80
2020/12/29 07:48:09;;;;;;;11.00;9.50;;;3.30;74.90;;;;;;5046010;28;20102;-79
2020/12/29 07:50:38;;;;;;;13.18;10.20;;;3.30;74.90;;;;;;5044876;28;20059;-77
2020/12/29 07:53:06;;;;;;;14.70;10.48;;;3.30;74.90;;;;;;5044506;28;20029;-79
2020/12/29 07:55:33;;;;;;;11.00;9.90;;;3.30;74.90;;;;;;5044338;28;20041;-78
2020/12/29 07:58:06;;;;;;;12.02;9.65;;;3.30;74.90;;;;;;5044714;28;20530;-77
2020/12/29 08:00:34;;;;;;;14.45;8.85;;;3.30;74.90;;;;;;5043988;28;20055;-79
2020/12/29 08:03:00;;;;;;;11.88;9.02;;;3.30;75.00;;;;;;5042699;28;20033;-80
2020/12/29 08:05:28;;;;;;;12.43;9.20;;;3.30;75.00;;;;;;5027559;28;20130;-80
2020/12/29 08:07:59;;;;;;;13.73;9.10;;;3.30;75.00;;;;;;5046569;28;20067;-82
2020/12/29 08:10:30;;;;;;;13.40;9.98;;;3.30;75.00;;;;;;5044022;28;20136;-82
2020/12/29 08:12:59;;;;;;;12.00;9.15;;;3.30;75.00;;;;;;5047520;28;20033;-83
2020/12/29 08:15:44;;;;;;;13.02;9.60;;;3.20;74.80;;;;;;5033177;28;20029;-79
2020/12/29 08:18:20;;;;;;;11.20;9.38;;;3.30;75.00;;;;;;5050030;28;20090;-79
2020/12/29 08:20:47;;;;;;;12.27;10.02;;;3.30;75.00;;;;;;5038791;28;20033;-81
2020/12/29 08:23:15;;;;;;;12.30;9.23;;;3.30;75.00;;;;;;5039781;28;20512;-79
2020/12/29 08:25:51;;;;;;;13.13;9.57;;;3.20;74.80;;;;;;5044581;28;20120;-78
2020/12/29 08:28:17;;;;;;;13.73;9.30;;;3.20;74.80;;;;;;5044434;28;20035;-78
2020/12/29 08:30:44;;;;;;;13.02;9.63;;;3.20;74.80;;;;;;5044420;28;20396;-78
2020/12/29 08:33:12;;;;;;;13.85;9.55;;;3.30;75.00;;;;;;5043409;28;20036;-77
2020/12/29 08:35:46;;;;;;;11.00;9.10;;;3.20;74.80;;;;;;5043178;28;20055;-77
2020/12/29 08:38:31;;;;;;;13.60;9.25;;;3.30;75.00;;;;;;5044047;28;20510;-78
2020/12/29 08:41:09;;;;;;;10.88;8.30;;;3.30;75.00;;;;;;5043441;28;20052;-77
2020/12/29 08:43:59;;;;;;;12.25;9.38;;;3.20;74.80;;;;;;5044320;28;20025;-77
2020/12/29 08:46:25;;;;;;;12.70;8.95;;;3.30;75.00;;;;;;5042529;28;20071;-79
2020/12/29 08:48:56;;;;;;;9.55;8.52;;;3.30;75.00;;;;;;5044621;28;20132;-79
2020/12/29 08:51:47;;;;;;;11.60;8.82;;;3.30;75.00;;;;;;5044013;28;20468;-78
2020/12/29 08:54:15;;;;;;;10.45;8.02;;;3.30;75.00;;;;;;5029674;28;20025;-82
2020/12/29 08:56:43;;;;;;;10.40;8.68;;;3.30;75.00;;;;;;5029751;28;20029;-83
2020/12/29 08:59:20;;;;;;;9.40;8.40;;;3.30;75.00;;;;;;5045033;28;20032;-80
2020/12/29 09:01:59;;;;;;;11.25;8.38;;;3.30;75.00;;;;;;5045515;28;20523;-80
2020/12/29 09:04:42;;;;;;;10.00;7.95;;;3.40;75.10;;;;;;5026634;28;20496;-79
2020/12/29 09:07:11;;;;;;;9.70;8.15;;;3.40;75.10;;;;;;5025184;28;20328;-84
2020/12/29 09:09:50;;;;;;;11.38;8.23;;;3.40;75.10;;;;;;5043024;28;20037;-84
2020/12/29 09:12:18;;;;;;;10.02;8.05;;;3.40;75.10;;;;;;5052363;28;20021;-82
2020/12/29 09:14:53;;;;;;;10.10;8.05;;;3.40;75.10;;;;;;5050653;28;20033;-82
2020/12/29 09:17:20;;;;;;;9.13;7.68;;;3.40;75.00;;;;;;5034136;28;20025;-82
2020/12/29 09:20:06;;;;;;;11.18;7.68;;;3.50;75.20;;;;;;5038542;28;20049;-88
2020/12/29 09:22:32;;;;;;;7.90;7.10;;;3.50;75.20;;;;;;5037920;28;20037;-84
2020/12/29 09:24:58;;;;;;;9.75;7.70;;;3.50;75.10;;;;;;5051523;28;20058;-85
2020/12/29 09:27:32;;;;;;;14.93;8.35;;;3.50;75.10;;;;;;5046884;28;20051;-82
2020/12/29 09:30:10;;;;;;;9.40;8.15;;;3.50;75.20;;;;;;5051664;28;20029;-83
2020/12/29 09:32:38;;;;;;;12.07;8.27;;;3.60;75.40;;;;;;5051446;28;20029;-83
2020/12/29 09:35:25;;;;;;;13.07;8.35;;;3.60;75.30;;;;;;5050278;28;20073;-84
2020/12/29 09:37:52;;;;;;;9.38;8.02;;;3.70;75.50;;;;;;5074241;28;20029;-82
2020/12/29 09:40:19;;;;;;;8.35;7.45;;;3.70;75.50;;;;;;5050848;28;20038;-90
2020/12/29 09:42:45;;;;;;;9.75;7.78;;;3.80;75.60;;;;;;5021540;28;20167;-85
2020/12/29 09:45:11;;;;;;;11.50;7.55;;;3.70;75.80;;;;;;5022059;28;20026;-85
2020/12/29 09:47:37;;;;;;;8.90;7.75;;;3.80;75.50;;;;;;5034290;28;20519;-84
2020/12/29 09:50:04;;;;;;;7.53;6.72;;;3.80;75.50;;;;;;5038491;28;20036;-84
2020/12/29 09:52:30;;;;;;;8.60;6.82;;;3.80;75.50;;;;;;5020880;28;20036;-84
2020/12/29 09:54:57;;;;;;;11.48;7.47;;;3.80;75.50;;;;;;5038268;28;20093;-84
2020/12/29 09:57:23;;;;;;;8.52;6.82;;;3.80;75.50;;;;;;5038603;28;20128;-89
2020/12/29 09:59:49;;;;;;;8.25;7.18;;;3.90;75.60;;;;;;5040517;28;20041;-85
2020/12/29 10:02:15;;;;;;;10.40;6.68;;;3.90;75.70;;;;;;5036555;28;20047;-84
2020/12/29 10:04:41;;;;;;;7.50;6.60;;;3.80;75.50;;;;;;5040004;28;20096;-83
2020/12/29 10:07:07;;;;;;;8.60;6.68;;;3.90;75.70;;;;;;5038158;28;20068;-82
2020/12/29 10:09:33;;;;;;;7.68;6.45;;;3.90;75.60;;;;;;5053985;28;20033;-83
2020/12/29 10:11:59;;;;;;;6.47;5.35;;;3.90;75.60;;;;;;5059113;28;20075;-85
2020/12/29 10:14:26;;;;;;;7.43;6.15;;;3.90;75.60;;;;;;5059618;28;20025;-86
2020/12/29 10:16:52;;;;;;;9.48;6.13;;;3.90;75.60;;;;;;5044118;28;20033;-94
2020/12/29 10:19:18;;;;;;;6.18;5.57;;;3.90;75.60;;;;;;5044321;28;20353;-88
2020/12/29 10:21:51;;;;;;;9.57;6.38;;;3.90;75.60;;;;;;5034375;28;20048;-79
2020/12/29 10:24:17;;;;;;;8.30;6.40;;;3.90;75.90;;;;;;5028710;28;20488;-80
2020/12/29 10:26:43;;;;;;;6.20;5.55;;;4.10;76.40;;;;;;5039126;28;20130;-79
2020/12/29 10:29:09;;;;;;;7.57;6.35;;;4.10;76.30;;;;;;5039019;28;20086;-79
2020/12/29 10:31:35;;;;;;;6.55;5.10;;;4.20;76.40;;;;;;5046160;28;20497;-80
2020/12/29 10:34:02;;;;;;;8.45;5.93;;;4.30;76.40;;;;;;5033979;28;20516;-78
2020/12/29 10:36:35;;;;;;;6.20;5.57;;;4.40;76.50;;;;;;5025539;28;20040;-78
2020/12/29 10:39:05;;;;;;;8.25;6.05;;;4.30;76.20;;;;;;5037580;28;20045;-78
2020/12/29 10:41:33;;;;;;;7.47;6.53;;;4.40;76.40;;;;;;5044537;28;20489;-78
2020/12/29 10:44:00;;;;;;;7.72;6.07;;;4.40;76.40;;;;;;5045412;28;20039;-78
2020/12/29 10:46:26;;;;;;;7.68;6.43;;;4.40;76.40;;;;;;5044988;28;20251;-76
2020/12/29 10:48:52;;;;;;;6.43;5.20;;;4.40;76.40;;;;;;5044673;28;20334;-76
2020/12/29 10:51:18;;;;;;;7.22;5.90;;;4.40;76.40;;;;;;5047360;28;20154;-78
2020/12/29 10:53:45;;;;;;;7.55;6.05;;;4.40;76.40;;;;;;5046101;28;20494;-78
2020/12/29 10:56:11;;;;;;;7.18;6.35;;;4.40;76.40;;;;;;5046620;28;20029;-78
2020/12/29 10:58:39;;;;;;;7.63;6.68;;;4.40;76.40;;;;;;5047564;28;20040;-78
2020/12/29 11:01:06;;;;;;;7.82;6.22;;;4.40;76.40;;;;;;5029085;28;20467;-77
2020/12/29 11:03:32;;;;;;;5.55;4.95;;;4.40;76.40;;;;;;5046443;28;20056;-77
2020/12/29 11:05:58;;;;;;;8.25;6.28;;;4.40;76.50;;;;;;5044912;28;20485;-77
2020/12/29 11:08:28;;;;;;;8.70;6.68;;;4.40;76.50;;;;;;5028675;28;20043;-78
2020/12/29 11:10:54;;;;;;;6.72;5.95;;;4.40;76.50;;;;;;5046660;28;20041;-78
2020/12/29 11:13:20;;;;;;;8.07;6.53;;;4.40;76.50;;;;;;5047134;28;20225;-77
2020/12/29 11:15:51;;;;;;;9.00;7.07;;;4.40;76.50;;;;;;5044702;28;20486;-78
2020/12/29 11:18:18;;;;;;;8.35;7.03;;;4.40;76.60;;;;;;5044687;28;20031;-77
2020/12/29 11:20:44;;;;;;;9.15;6.78;;;4.50;76.80;;;;;;5029161;28;20056;-80
2020/12/29 11:23:10;;;;;;;8.15;6.65;;;4.50;76.80;;;;;;5045838;28;20206;-78
2020/12/29 11:25:36;;;;;;;10.15;6.85;;;4.50;76.70;;;;;;5046537;28;20557;-78
2020/12/29 11:28:02;;;;;;;8.98;7.13;;;4.50;76.70;;;;;;5047320;28;20028;-78
2020/12/29 11:30:28;;;;;;;8.35;6.43;;;4.60;76.80;;;;;;5044432;28;20060;-79
2020/12/29 11:32:54;;;;;;;9.45;6.47;;;4.60;76.90;;;;;;5046157;28;20074;-81
2020/12/29 11:35:20;;;;;;;8.27;7.03;;;4.60;76.80;;;;;;5044174;28;20028;-78
2020/12/29 11:37:46;;;;;;;9.77;6.82;;;4.60;76.80;;;;;;5045992;28;20061;-79
2020/12/29 11:40:12;;;;;;;8.23;7.03;;;4.70;77.00;;;;;;5045477;28;20059;-80
2020/12/29 11:42:37;;;;;;;15.15;6.13;;;4.70;77.00;;;;;;5049869;28;20060;-82
2020/12/29 11:45:04;;;;;;;10.82;6.93;;;4.70;77.00;;;;;;5036035;28;20547;-83
2020/12/29 11:47:30;;;;;;;7.57;6.38;;;4.80;77.20;;;;;;5058480;28;20128;-79
2020/12/29 11:49:56;;;;;;;8.65;6.65;;;4.90;77.40;;;;;;5040447;28;20067;-79
2020/12/29 11:52:25;;;;;;;7.88;6.68;;;5.00;77.60;;;;;;5043627;28;20029;-80
2020/12/29 11:54:52;;;;;;;11.07;5.72;;;5.00;77.50;;;;;;5062035;28;20072;-80
2020/12/29 11:57:18;;;;;;;7.38;6.53;;;5.10;77.60;;;;;;5062196;28;20052;-83
2020/12/29 11:59:44;;;;;;;6.35;5.75;;;5.30;77.90;;;;;;5044422;28;20051;-80
2020/12/29 12:02:11;;;;;;;8.45;6.72;;;5.40;77.90;;;;;;5058779;28;20151;-79
2020/12/29 12:04:37;;;;;;;7.78;5.97;;;5.50;78.00;;;;;;5026306;28;20053;-80
2020/12/29 12:07:05;;;;;;;7.18;6.18;;;5.60;78.00;;;;;;5057820;28;20120;-82
2020/12/29 12:09:32;;;;;;;7.28;5.88;;;5.80;78.30;;;;;;5056586;28;20082;-78
2020/12/29 12:11:58;;;;;;;8.55;7.63;;;5.90;78.20;;;;;;5056988;28;20382;-85
2020/12/29 12:14:24;;;;;;;137.48;97.85;;;6.00;78.50;;;;;;5035255;28;20076;-81
2020/12/29 12:16:50;;;;;;;127.10;90.10;;;6.10;78.30;;;;;;5002637;28;20029;-80
2020/12/29 12:19:16;;;;;;;69.47;51.95;;;6.10;78.40;;;;;;5038396;28;20079;-80
2020/12/29 12:21:42;;;;;;;77.53;56.08;;;6.20;78.60;;;;;;5054859;28;20079;-80
2020/12/29 12:24:08;;;;;;;76.28;52.17;;;6.20;78.50;;;;;;5050078;28;20063;-79
2020/12/29 12:26:34;;;;;;;68.75;48.35;;;6.30;78.70;;;;;;5037257;28;20314;-81
2020/12/29 12:29:00;;;;;;;63.22;48.15;;;6.30;78.70;;;;;;5035096;28;20151;-83
2020/12/29 12:31:26;;;;;;;68.47;47.83;;;6.30;78.60;;;;;;5027346;28;20119;-77
2020/12/29 12:33:52;;;;;;;65.95;46.33;;;6.30;78.60;;;;;;5040151;28;20583;-79
2020/12/29 12:36:18;;;;;;;50.03;40.47;;;6.30;78.50;;;;;;5043528;28;20028;-79
2020/12/29 12:38:45;;;;;;;56.53;42.70;;;6.40;78.80;;;;;;5044307;28;20128;-76
2020/12/29 12:41:11;;;;;;;54.17;42.88;;;6.40;78.80;;;;;;5043966;28;20124;-74
2020/12/29 12:43:38;;;;;;;49.25;38.92;;;6.40;78.90;;;;;;5045282;28;20036;-77
2020/12/29 12:46:06;;;;;;;49.63;35.67;;;6.40;78.90;;;;;;5042607;28;20041;-74
2020/12/29 12:48:32;;;;;;;57.60;35.90;;;6.40;78.90;;;;;;5043085;28;20412;-77
2020/12/29 12:50:58;;;;;;;50.90;35.85;;;6.50;79.00;;;;;;5045248;28;20037;-77
2020/12/29 12:53:24;;;;;;;45.40;34.20;;;6.50;79.00;;;;;;5043291;28;20291;-78